createdAt,value
2023-03-16T00:02:16.403Z,-2.54
2023-03-16T00:04:47.970Z,-2.53
2023-03-16T00:07:20.463Z,-2.51
2023-03-16T00:09:55.077Z,-2.49
2023-03-16T00:12:26.843Z,-2.45
2023-03-16T00:14:57.135Z,-2.42
2023-03-16T00:17:29.156Z,-2.41
2023-03-16T00:20:00.468Z,-2.40
2023-03-16T00:22:31.157Z,-2.43
2023-03-16T00:25:02.451Z,-2.48
2023-03-16T00:27:31.351Z,-2.50
2023-03-16T00:30:03.966Z,-2.50
2023-03-16T00:32:36.053Z,-2.51
2023-03-16T00:35:09.399Z,-2.51
2023-03-16T00:37:41.080Z,-2.51
2023-03-16T00:40:15.172Z,-2.50
2023-03-16T00:42:47.972Z,-2.48
2023-03-16T00:45:19.584Z,-2.48
2023-03-16T00:47:49.511Z,-2.47
2023-03-16T00:50:22.691Z,-2.46
2023-03-16T00:52:54.376Z,-2.44
2023-03-16T00:55:25.194Z,-2.42
2023-03-16T00:57:55.494Z,-2.42
2023-03-16T01:00:29.065Z,-2.43
2023-03-16T01:02:59.703Z,-2.45
2023-03-16T01:05:29.358Z,-2.46
2023-03-16T01:08:00.343Z,-2.49
2023-03-16T01:10:33.413Z,-2.51
2023-03-16T01:13:03.392Z,-2.52
2023-03-16T01:15:35.251Z,-2.52
2023-03-16T01:18:06.844Z,-2.52
2023-03-16T01:20:37.270Z,-2.54
2023-03-16T01:23:10.919Z,-2.54
2023-03-16T01:25:41.738Z,-2.55
2023-03-16T01:28:13.954Z,-2.55
2023-03-16T01:30:44.531Z,-2.56
2023-03-16T01:33:13.768Z,-2.56
2023-03-16T01:35:55.577Z,-2.56
2023-03-16T01:38:27.343Z,-2.56
2023-03-16T01:40:57.481Z,-2.57
2023-03-16T01:43:31.086Z,-2.58
2023-03-16T01:46:07.668Z,-2.61
2023-03-16T01:48:45.850Z,-2.64
2023-03-16T01:51:34.936Z,-2.67
2023-03-16T01:54:23.092Z,-2.69
2023-03-16T01:57:15.741Z,-2.72
2023-03-16T02:00:00.333Z,-2.74
2023-03-16T02:02:33.142Z,-2.74
2023-03-16T02:05:16.594Z,-2.72
2023-03-16T02:07:53.352Z,-2.73
2023-03-16T02:10:24.760Z,-2.74
2023-03-16T02:12:55.347Z,-2.76
2023-03-16T02:15:26.570Z,-2.83
2023-03-16T02:18:01.837Z,-2.96
2023-03-16T02:20:49.838Z,-3.09
2023-03-16T02:23:22.560Z,-3.18
2023-03-16T02:26:04.837Z,-3.21
2023-03-16T02:29:11.611Z,-3.24
2023-03-16T02:31:43.237Z,-3.23
2023-03-16T02:34:17.322Z,-3.18
2023-03-16T02:36:50.537Z,-3.14
2023-03-16T02:39:21.674Z,-3.10
2023-03-16T02:41:53.298Z,-3.07
2023-03-16T02:44:28.132Z,-3.04
2023-03-16T02:47:06.690Z,-3.01
2023-03-16T02:49:43.662Z,-2.99
2023-03-16T02:52:14.443Z,-2.98
2023-03-16T02:54:45.806Z,-3.00
2023-03-16T02:57:17.193Z,-3.00
2023-03-16T02:59:47.917Z,-3.00
2023-03-16T03:02:17.241Z,-3.02
2023-03-16T03:04:47.360Z,-3.03
2023-03-16T03:07:19.195Z,-3.03
2023-03-16T03:10:04.691Z,-3.03
2023-03-16T03:12:35.637Z,-3.07
2023-03-16T03:15:08.560Z,-3.09
2023-03-16T03:17:45.592Z,-3.11
2023-03-16T03:20:18.360Z,-3.11
2023-03-16T03:22:53.057Z,-3.11
2023-03-16T03:25:25.286Z,-3.12
2023-03-16T03:28:00.233Z,-3.13
2023-03-16T03:30:33.595Z,-3.12
2023-03-16T03:33:07.106Z,-3.12
2023-03-16T03:35:39.349Z,-3.13
2023-03-16T03:38:12.000Z,-3.14
2023-03-16T03:40:43.671Z,-3.13
2023-03-16T03:43:15.663Z,-3.13
2023-03-16T03:45:47.169Z,-3.12
2023-03-16T03:48:19.325Z,-3.12
2023-03-16T03:50:50.932Z,-3.15
2023-03-16T03:53:48.219Z,-3.17
2023-03-16T03:56:25.963Z,-3.19
2023-03-16T03:58:55.089Z,-3.18
2023-03-16T04:01:35.541Z,-3.18
2023-03-16T04:04:09.145Z,-3.17
2023-03-16T04:06:38.809Z,-3.20
2023-03-16T04:09:09.233Z,-3.23
2023-03-16T04:11:38.771Z,-3.25
2023-03-16T04:14:12.190Z,-3.25
2023-03-16T04:16:41.546Z,-3.23
2023-03-16T04:19:14.263Z,-3.23
2023-03-16T04:21:45.591Z,-3.23
2023-03-16T04:24:15.724Z,-3.25
2023-03-16T04:26:48.213Z,-3.25
2023-03-16T04:29:19.031Z,-3.24
2023-03-16T04:31:52.043Z,-3.22
2023-03-16T04:34:26.087Z,-3.21
2023-03-16T04:36:58.865Z,-3.22
2023-03-16T04:39:30.998Z,-3.24
2023-03-16T04:42:02.042Z,-3.29
2023-03-16T04:44:34.800Z,-3.35
2023-03-16T04:47:10.164Z,-3.36
2023-03-16T04:49:47.429Z,-3.35
2023-03-16T04:52:23.058Z,-3.32
2023-03-16T04:54:58.251Z,-3.28
2023-03-16T04:57:27.932Z,-3.26
2023-03-16T04:59:58.516Z,-3.23
2023-03-16T05:02:41.881Z,-3.20
2023-03-16T05:05:15.674Z,-3.18
2023-03-16T05:07:45.831Z,-3.15
2023-03-16T05:10:19.192Z,-3.12
2023-03-16T05:12:54.269Z,-3.08
2023-03-16T05:15:27.233Z,-3.03
2023-03-16T05:18:03.436Z,-2.99
2023-03-16T05:20:35.392Z,-2.96
2023-03-16T05:23:05.423Z,-2.91
2023-03-16T05:25:39.102Z,-2.87
2023-03-16T05:28:08.380Z,-2.82
2023-03-16T05:30:45.793Z,-2.79
2023-03-16T05:33:22.054Z,-2.77
2023-03-16T05:35:53.526Z,-2.74
2023-03-16T05:38:26.449Z,-2.70
2023-03-16T05:41:03.318Z,-2.66
2023-03-16T05:43:50.810Z,-2.58
2023-03-16T05:46:21.028Z,-2.50
2023-03-16T05:48:54.034Z,-2.42
2023-03-16T05:51:27.702Z,-2.37
2023-03-16T05:53:59.600Z,-2.27
2023-03-16T05:56:36.859Z,-2.15
2023-03-16T05:59:07.433Z,-2.05
2023-03-16T06:01:41.295Z,-1.93
2023-03-16T06:04:13.601Z,-1.81
2023-03-16T06:06:56.953Z,-1.69
2023-03-16T06:09:29.791Z,-1.53
2023-03-16T06:12:01.142Z,-1.39
2023-03-16T06:14:37.804Z,-1.23
2023-03-16T06:17:08.923Z,-1.10
2023-03-16T06:19:39.662Z,-0.98
2023-03-16T06:22:12.010Z,-0.85
2023-03-16T06:24:42.690Z,-0.72
2023-03-16T06:27:15.030Z,-0.57
2023-03-16T06:29:57.322Z,-0.40
2023-03-16T06:32:28.063Z,-0.22
2023-03-16T06:35:00.126Z,-0.04
2023-03-16T06:37:34.483Z,0.17
2023-03-16T06:40:09.093Z,0.51
2023-03-16T06:42:45.112Z,1.99
2023-03-16T06:45:17.887Z,4.40
2023-03-16T06:47:48.687Z,6.30
2023-03-16T06:50:19.125Z,7.99
2023-03-16T06:52:49.974Z,9.06
2023-03-16T06:55:21.485Z,9.27
2023-03-16T06:57:51.189Z,9.53
2023-03-16T07:00:22.468Z,9.81
2023-03-16T07:02:53.526Z,10.90
2023-03-16T07:05:25.491Z,11.30
2023-03-16T07:07:57.017Z,11.21
2023-03-16T07:10:28.647Z,10.84
2023-03-16T07:12:59.007Z,10.17
2023-03-16T07:15:28.895Z,9.41
2023-03-16T07:17:59.724Z,10.11
2023-03-16T07:20:31.722Z,11.22
2023-03-16T07:23:05.651Z,12.34
2023-03-16T07:25:35.868Z,13.66
2023-03-16T07:28:07.297Z,14.59
2023-03-16T07:30:45.859Z,15.18
2023-03-16T07:33:26.888Z,16.04
2023-03-16T07:35:56.545Z,16.70
2023-03-16T07:38:25.918Z,16.77
2023-03-16T07:40:55.187Z,16.93
2023-03-16T07:43:25.278Z,16.93
2023-03-16T07:45:57.494Z,15.72
2023-03-16T07:48:26.984Z,15.36
2023-03-16T07:51:00.710Z,15.44
2023-03-16T07:53:30.633Z,14.46
2023-03-16T07:56:15.972Z,13.90
2023-03-16T07:58:48.629Z,11.98
2023-03-16T08:01:22.206Z,10.25
2023-03-16T08:03:54.177Z,9.59
2023-03-16T08:06:27.189Z,9.48
2023-03-16T08:08:57.349Z,9.02
2023-03-16T08:16:25.806Z,8.37
2023-03-16T08:18:58.792Z,9.51
2023-03-16T08:21:30.744Z,9.99
2023-03-16T08:24:02.277Z,9.57
2023-03-16T08:26:32.117Z,9.83
2023-03-16T08:29:04.593Z,9.38
2023-03-16T08:31:44.500Z,9.03
2023-03-16T08:34:18.654Z,8.81
2023-03-16T08:43:07.030Z,7.86
2023-03-16T08:45:36.444Z,9.60
2023-03-16T08:48:08.547Z,11.81
2023-03-16T08:50:44.477Z,14.29
2023-03-16T08:53:14.888Z,16.19
2023-03-16T08:55:44.387Z,16.34
2023-03-16T08:58:15.798Z,15.04
2023-03-16T09:00:48.261Z,14.12
2023-03-16T09:03:20.235Z,14.02
2023-03-16T09:05:53.002Z,13.37
2023-03-16T09:08:24.655Z,12.51
2023-03-16T09:11:06.419Z,11.47
2023-03-16T09:13:41.832Z,10.94
2023-03-16T09:16:15.254Z,10.42
2023-03-16T09:18:45.425Z,11.01
2023-03-16T09:21:16.119Z,11.81
2023-03-16T09:23:46.518Z,11.12
2023-03-16T09:26:19.978Z,10.74
2023-03-16T09:28:55.866Z,13.19
2023-03-16T09:31:27.356Z,14.94
2023-03-16T09:34:02.009Z,16.73
2023-03-16T09:36:34.951Z,18.08
2023-03-16T09:39:04.959Z,19.45
2023-03-16T09:41:49.750Z,20.39
2023-03-16T09:44:56.599Z,21.56
2023-03-16T09:47:31.389Z,21.81
2023-03-16T09:50:06.321Z,21.91
2023-03-16T09:52:56.352Z,21.88
2023-03-16T09:55:29.946Z,21.30
2023-03-16T09:58:06.429Z,21.61
2023-03-16T10:00:42.475Z,20.82
2023-03-16T10:03:36.619Z,20.37
2023-03-16T10:06:12.036Z,18.90
2023-03-16T10:08:46.112Z,18.12
2023-03-16T10:11:40.685Z,17.59
2023-03-16T10:14:28.588Z,17.05
2023-03-16T10:17:19.341Z,16.32
2023-03-16T10:19:55.011Z,17.62
2023-03-16T10:22:36.071Z,17.93
2023-03-16T10:25:13.432Z,18.37
2023-03-16T10:27:46.586Z,17.58
2023-03-16T10:30:30.470Z,17.11
2023-03-16T10:33:19.083Z,17.32
2023-03-16T10:35:59.047Z,15.19
2023-03-16T10:38:59.656Z,13.35
2023-03-16T10:41:37.295Z,12.62
2023-03-16T10:44:40.741Z,11.86
2023-03-16T10:50:38.577Z,10.45
2023-03-16T10:53:42.198Z,9.85
2023-03-16T10:56:23.037Z,9.22
2023-03-16T10:58:53.146Z,8.59
2023-03-16T11:01:33.103Z,7.96
2023-03-16T11:04:16.029Z,7.19
2023-03-16T11:06:58.787Z,6.48
2023-03-16T11:09:39.182Z,6.02
2023-03-16T11:12:23.589Z,5.63
2023-03-16T11:14:55.496Z,5.40
2023-03-16T11:17:37.086Z,5.23
2023-03-16T11:20:18.229Z,5.04
2023-03-16T11:22:50.978Z,4.94
2023-03-16T11:25:29.749Z,4.85
2023-03-16T11:28:26.114Z,4.78
2023-03-16T11:30:59.792Z,4.71
2023-03-16T11:33:32.530Z,4.75
2023-03-16T11:36:49.961Z,4.70
2023-03-16T11:39:45.197Z,4.70
2023-03-16T11:42:47.925Z,4.66
2023-03-16T11:45:23.688Z,4.65
2023-03-16T11:48:19.936Z,4.68
2023-03-16T11:51:30.940Z,4.52
2023-03-16T11:54:25.550Z,4.44
2023-03-16T11:57:02.541Z,4.51
2023-03-16T11:59:32.309Z,4.50
2023-03-16T12:02:29.964Z,4.49
2023-03-16T12:05:08.260Z,4.65
2023-03-16T12:07:57.766Z,4.87
2023-03-16T12:10:40.213Z,5.25
2023-03-16T12:13:22.213Z,5.70
2023-03-16T12:16:16.987Z,6.19
2023-03-16T12:18:53.615Z,6.86
2023-03-16T12:21:31.959Z,7.17
2023-03-16T12:24:13.141Z,7.22
2023-03-16T12:26:45.889Z,6.99
2023-03-16T12:29:38.415Z,6.66
2023-03-16T12:32:41.556Z,6.33
2023-03-16T12:35:53.293Z,5.98
2023-03-16T12:38:51.171Z,5.56
2023-03-16T12:41:31.018Z,5.38
2023-03-16T12:44:33.494Z,5.22
2023-03-16T12:47:21.928Z,5.02
2023-03-16T12:49:54.749Z,5.04
2023-03-16T12:52:24.635Z,4.96
2023-03-16T12:55:08.344Z,4.97
2023-03-16T12:57:43.772Z,5.06
2023-03-16T13:00:17.042Z,5.10
2023-03-16T13:02:57.881Z,4.95
2023-03-16T13:05:39.481Z,4.79
2023-03-16T13:08:19.367Z,4.81
2023-03-16T13:11:18.501Z,4.66
2023-03-16T13:14:02.948Z,4.58
2023-03-16T13:16:36.752Z,4.88
2023-03-16T13:19:32.938Z,5.70
2023-03-16T13:22:28.860Z,6.70
2023-03-16T13:25:37.358Z,7.35
2023-03-16T13:28:15.692Z,7.46
2023-03-16T13:30:50.571Z,7.28
2023-03-16T13:33:32.730Z,7.29
2023-03-16T13:36:14.792Z,7.35
2023-03-16T13:39:19.662Z,7.27
2023-03-16T13:42:22.969Z,7.48
2023-03-16T13:44:58.788Z,7.68
2023-03-16T13:47:29.018Z,7.67
2023-03-16T13:50:01.471Z,7.26
2023-03-16T13:52:36.635Z,6.89
2023-03-16T13:55:17.212Z,6.43
2023-03-16T13:57:48.411Z,6.02
2023-03-16T14:00:26.251Z,5.73
2023-03-16T14:02:58.123Z,5.47
2023-03-16T14:05:33.857Z,5.25
2023-03-16T14:08:05.341Z,5.04
2023-03-16T14:10:39.100Z,4.91
2023-03-16T14:13:24.544Z,4.92
2023-03-16T14:16:19.181Z,4.93
2023-03-16T14:19:14.474Z,4.90
2023-03-16T14:21:49.666Z,5.08
2023-03-16T14:24:35.882Z,5.20
2023-03-16T14:27:40.856Z,5.30
2023-03-16T14:30:18.853Z,5.18
2023-03-16T14:33:01.951Z,5.13
2023-03-16T14:35:45.608Z,5.15
2023-03-16T14:38:24.659Z,5.18
2023-03-16T14:40:57.292Z,5.09
2023-03-16T14:43:33.771Z,5.06
2023-03-16T14:46:07.736Z,5.05
2023-03-16T14:48:38.223Z,4.92
2023-03-16T14:51:20.882Z,4.73
2023-03-16T14:53:48.708Z,4.64
2023-03-16T14:56:17.340Z,4.61
2023-03-16T14:58:45.314Z,4.62
2023-03-16T15:01:18.655Z,4.56
2023-03-16T15:04:02.157Z,4.48
2023-03-16T15:06:35.439Z,4.45
2023-03-16T15:09:08.088Z,4.42
2023-03-16T15:11:38.886Z,4.39
2023-03-16T15:14:36.740Z,4.38
2023-03-16T15:17:07.028Z,4.36
2023-03-16T15:19:37.652Z,4.32
2023-03-16T15:22:13.918Z,4.26
2023-03-16T15:24:46.743Z,4.22
2023-03-16T15:27:27.150Z,4.16
2023-03-16T15:30:01.221Z,4.10
2023-03-16T15:32:32.274Z,4.03
2023-03-16T15:35:01.974Z,3.97
2023-03-16T15:37:33.224Z,3.90
2023-03-16T15:40:06.563Z,3.84
2023-03-16T15:42:38.377Z,3.81
2023-03-16T15:45:21.232Z,3.81
2023-03-16T15:47:53.798Z,3.80
2023-03-16T15:50:25.648Z,3.80
2023-03-16T15:53:13.268Z,3.80
2023-03-16T15:55:50.463Z,3.85
2023-03-16T15:58:25.929Z,3.91
2023-03-16T16:01:04.080Z,3.96
2023-03-16T16:03:34.591Z,3.99
2023-03-16T16:06:04.748Z,4.03
2023-03-16T16:08:34.603Z,4.06
2023-03-16T16:11:10.390Z,4.07
2023-03-16T16:13:44.934Z,4.08
2023-03-16T16:16:18.207Z,4.07
2023-03-16T16:18:49.189Z,4.02
2023-03-16T16:21:31.527Z,3.93
2023-03-16T16:24:06.637Z,3.84
2023-03-16T16:26:53.762Z,3.76
2023-03-16T16:29:27.546Z,3.65
2023-03-16T16:32:01.057Z,3.51
2023-03-16T16:34:32.909Z,3.40
2023-03-16T16:37:09.900Z,3.30
2023-03-16T16:39:50.633Z,3.14
2023-03-16T16:42:35.884Z,3.03
2023-03-16T16:45:28.625Z,2.87
2023-03-16T16:48:13.957Z,2.69
2023-03-16T16:51:01.039Z,2.59
2023-03-16T16:53:36.110Z,2.51
2023-03-16T16:56:21.993Z,2.43
2023-03-16T16:59:00.503Z,2.32
2023-03-16T17:01:37.795Z,2.24
2023-03-16T17:04:26.914Z,2.19
2023-03-16T17:07:06.566Z,2.12
2023-03-16T17:09:48.237Z,2.07
2023-03-16T17:12:34.166Z,2.03
2023-03-16T17:15:47.871Z,2.00
2023-03-16T17:18:28.764Z,1.83
2023-03-16T17:21:05.498Z,1.66
2023-03-16T17:23:58.203Z,1.54
2023-03-16T17:26:37.775Z,1.45
2023-03-16T17:29:46.608Z,1.39
2023-03-16T17:32:26.844Z,1.30
2023-03-16T17:35:05.589Z,1.22
2023-03-16T17:37:44.197Z,1.13
2023-03-16T17:40:32.850Z,1.04
2023-03-16T17:43:32.189Z,1.00
2023-03-16T17:46:12.272Z,0.99
2023-03-16T17:48:51.741Z,0.98
2023-03-16T17:51:27.768Z,0.96
2023-03-16T17:53:59.247Z,0.93
2023-03-16T17:56:32.558Z,0.87
2023-03-16T17:59:22.143Z,0.80
2023-03-16T18:02:01.440Z,0.70
2023-03-16T18:04:37.283Z,0.62
2023-03-16T18:07:17.689Z,0.58
2023-03-16T18:09:50.095Z,0.49
2023-03-16T18:12:27.786Z,0.35
2023-03-16T18:15:03.385Z,0.14
2023-03-16T18:17:37.135Z,-0.02
2023-03-16T18:20:37.440Z,-0.16
2023-03-16T18:23:26.675Z,-0.27
2023-03-16T18:26:04.267Z,-0.32
2023-03-16T18:28:39.917Z,-0.36
2023-03-16T18:31:29.745Z,-0.37
2023-03-16T18:34:07.787Z,-0.34
2023-03-16T18:36:50.098Z,-0.29
2023-03-16T18:39:23.261Z,-0.26
2023-03-16T18:41:59.135Z,-0.24
2023-03-16T18:44:33.582Z,-0.27
2023-03-16T18:47:09.976Z,-0.38
2023-03-16T18:49:52.353Z,-0.49
2023-03-16T18:52:33.470Z,-0.60
2023-03-16T18:55:21.836Z,-0.71
2023-03-16T18:57:57.706Z,-0.81
2023-03-16T19:00:31.571Z,-0.87
2023-03-16T19:03:07.694Z,-0.89
2023-03-16T19:05:42.734Z,-0.93
2023-03-16T19:08:18.256Z,-1.00
2023-03-16T19:10:55.088Z,-1.05
2023-03-16T19:13:28.893Z,-1.09
2023-03-16T19:16:04.419Z,-1.11
2023-03-16T19:18:43.926Z,-1.11
2023-03-16T19:21:25.415Z,-1.12
2023-03-16T19:24:06.567Z,-1.14
2023-03-16T19:26:40.526Z,-1.16
2023-03-16T19:29:16.353Z,-1.17
2023-03-16T19:31:59.841Z,-1.20
2023-03-16T19:34:36.826Z,-1.23
2023-03-16T19:37:16.482Z,-1.27
2023-03-16T19:39:54.054Z,-1.33
2023-03-16T19:42:37.714Z,-1.31
2023-03-16T19:45:23.855Z,-1.29
2023-03-16T19:47:58.097Z,-1.26
2023-03-16T19:50:32.169Z,-1.25
2023-03-16T19:53:14.616Z,-1.24
2023-03-16T19:55:48.577Z,-1.26
2023-03-16T19:58:36.535Z,-1.27
2023-03-16T20:01:30.412Z,-1.35
2023-03-16T20:04:06.630Z,-1.43
2023-03-16T20:06:41.116Z,-1.46
2023-03-16T20:09:12.559Z,-1.46
2023-03-16T20:11:58.716Z,-1.47
2023-03-16T20:14:39.860Z,-1.49
2023-03-16T20:17:21.473Z,-1.56
2023-03-16T20:19:54.959Z,-1.58
2023-03-16T20:22:30.572Z,-1.65
2023-03-16T20:25:02.928Z,-1.69
2023-03-16T20:27:46.256Z,-1.74
2023-03-16T20:30:21.183Z,-1.81
2023-03-16T20:32:54.021Z,-1.86
2023-03-16T20:35:29.474Z,-1.88
2023-03-16T20:38:02.682Z,-1.89
2023-03-16T20:40:36.534Z,-1.91
2023-03-16T20:43:24.812Z,-1.88
2023-03-16T20:46:08.710Z,-1.82
2023-03-16T20:48:45.025Z,-1.78
2023-03-16T20:51:19.550Z,-1.77
2023-03-16T20:53:54.675Z,-1.75
2023-03-16T20:56:29.029Z,-1.79
2023-03-16T20:59:00.329Z,-1.88
2023-03-16T21:01:34.490Z,-1.98
2023-03-16T21:04:23.054Z,-2.05
2023-03-16T21:06:57.260Z,-2.06
2023-03-16T21:09:34.467Z,-2.07
2023-03-16T21:12:25.820Z,-2.07
2023-03-16T21:15:01.250Z,-2.05
2023-03-16T21:17:38.716Z,-2.05
2023-03-16T21:20:21.637Z,-2.06
2023-03-16T21:22:53.634Z,-2.08
2023-03-16T21:25:35.137Z,-2.11
2023-03-16T21:28:06.265Z,-2.14
2023-03-16T21:30:57.040Z,-2.16
2023-03-16T21:33:39.975Z,-2.18
2023-03-16T21:36:19.900Z,-2.20
2023-03-16T21:38:53.345Z,-2.21
2023-03-16T21:41:24.220Z,-2.21
2023-03-16T21:43:57.220Z,-2.21
2023-03-16T21:46:26.821Z,-2.23
2023-03-16T21:48:56.365Z,-2.23
2023-03-16T21:51:31.906Z,-2.24
2023-03-16T21:54:02.097Z,-2.30
2023-03-16T21:56:34.454Z,-2.35
2023-03-16T21:59:03.974Z,-2.37
2023-03-16T22:01:38.248Z,-2.41
2023-03-16T22:04:16.996Z,-2.44
2023-03-16T22:06:47.678Z,-2.45
2023-03-16T22:09:22.905Z,-2.43
2023-03-16T22:11:53.627Z,-2.44
2023-03-16T22:14:26.054Z,-2.48
2023-03-16T22:16:57.447Z,-2.52
2023-03-16T22:19:27.986Z,-2.53
2023-03-16T22:21:57.326Z,-2.53
2023-03-16T22:24:29.623Z,-2.50
2023-03-16T22:27:01.506Z,-2.48
2023-03-16T22:29:34.202Z,-2.50
2023-03-16T22:32:11.007Z,-2.54
2023-03-16T22:34:46.989Z,-2.56
2023-03-16T22:37:21.426Z,-2.62
2023-03-16T22:39:53.419Z,-2.69
2023-03-16T22:42:43.866Z,-2.73
2023-03-16T22:45:35.006Z,-2.73
2023-03-16T22:48:23.393Z,-2.68
2023-03-16T22:50:55.968Z,-2.61
2023-03-16T22:53:56.546Z,-2.59
2023-03-16T22:56:28.187Z,-2.59
2023-03-16T22:59:02.663Z,-2.61
2023-03-16T23:01:38.101Z,-2.61
2023-03-16T23:04:38.131Z,-2.63
2023-03-16T23:07:20.628Z,-2.66
2023-03-16T23:09:51.129Z,-2.71
2023-03-16T23:12:22.625Z,-2.74
2023-03-16T23:14:54.088Z,-2.76
2023-03-16T23:17:23.173Z,-2.78
2023-03-16T23:19:54.896Z,-2.80
2023-03-16T23:22:24.950Z,-2.80
2023-03-16T23:24:57.182Z,-2.78
2023-03-16T23:27:26.568Z,-2.76
2023-03-16T23:29:57.107Z,-2.79
2023-03-16T23:32:28.194Z,-2.87
2023-03-16T23:35:01.395Z,-2.92
2023-03-16T23:37:32.961Z,-2.96
2023-03-16T23:40:06.277Z,-2.96
2023-03-16T23:42:40.056Z,-2.95
2023-03-16T23:45:32.027Z,-2.93
2023-03-16T23:48:07.428Z,-2.89
2023-03-16T23:50:40.676Z,-2.88
2023-03-16T23:53:18.010Z,-2.88
2023-03-16T23:55:50.206Z,-2.94
2023-03-16T23:58:19.844Z,-2.98
